createdAt,value
2018-03-21T00:00:39.424Z,99.9
2018-03-21T00:01:46.344Z,99.9
2018-03-21T00:02:53.541Z,99.9
2018-03-21T00:04:00.737Z,99.9
2018-03-21T00:05:07.650Z,99.9
2018-03-21T00:06:14.574Z,99.9
2018-03-21T00:07:21.774Z,99.9
2018-03-21T00:08:28.690Z,99.9
2018-03-21T00:09:35.335Z,99.9
2018-03-21T00:10:42.538Z,99.9
2018-03-21T00:11:49.457Z,99.9
2018-03-21T00:12:57.190Z,99.9
2018-03-21T00:14:04.116Z,99.9
2018-03-21T00:15:11.040Z,99.9
2018-03-21T00:16:18.470Z,99.9
2018-03-21T00:17:25.651Z,99.9
2018-03-21T00:18:32.576Z,99.9
2018-03-21T00:19:39.217Z,99.9
2018-03-21T00:20:46.142Z,99.9
2018-03-21T00:21:53.349Z,99.9
2018-03-21T00:23:00.263Z,99.9
2018-03-21T00:24:07.459Z,99.9
2018-03-21T00:25:14.090Z,99.9
2018-03-21T00:26:21.021Z,99.9
2018-03-21T00:27:27.936Z,99.9
2018-03-21T00:28:34.855Z,99.9
2018-03-21T00:29:42.047Z,99.9
2018-03-21T00:30:49.241Z,99.9
2018-03-21T00:31:56.473Z,99.9
2018-03-21T00:33:03.387Z,99.9
2018-03-21T00:34:10.030Z,99.9
2018-03-21T00:35:16.948Z,99.9
2018-03-21T00:36:23.870Z,99.9
2018-03-21T00:38:52.353Z,99.9
2018-03-21T00:39:59.542Z,99.9
2018-03-21T00:41:06.738Z,99.9
2018-03-21T00:42:13.380Z,99.9
2018-03-21T00:43:20.576Z,99.9
2018-03-21T00:44:27.769Z,99.9
2018-03-21T00:45:34.959Z,99.9
2018-03-21T00:46:42.154Z,99.9
2018-03-21T00:47:49.348Z,99.9
2018-03-21T00:48:56.268Z,99.9
2018-03-21T00:50:03.460Z,99.9
2018-03-21T00:51:10.375Z,99.9
2018-03-21T00:52:17.571Z,99.9
2018-03-21T00:53:24.215Z,99.9
2018-03-21T00:54:31.140Z,99.9
2018-03-21T00:55:38.054Z,99.9
2018-03-21T00:56:45.250Z,99.9
2018-03-21T00:57:52.440Z,99.9
2018-03-21T00:58:59.632Z,99.9
2018-03-21T01:00:06.822Z,99.9
2018-03-21T01:01:14.023Z,99.9
2018-03-21T01:02:21.210Z,99.9
2018-03-21T01:03:28.406Z,99.9
2018-03-21T01:04:35.610Z,99.9
2018-03-21T01:05:42.801Z,99.9
2018-03-21T01:06:49.729Z,99.9
2018-03-21T01:07:56.651Z,99.9
2018-03-21T01:09:03.846Z,99.9
2018-03-21T01:10:10.771Z,99.9
2018-03-21T01:11:17.684Z,99.9
2018-03-21T01:12:24.876Z,99.9
2018-03-21T01:13:32.069Z,99.9
2018-03-21T01:14:38.987Z,99.9
2018-03-21T01:15:46.172Z,99.9
2018-03-21T01:16:53.096Z,99.9
2018-03-21T01:17:59.463Z,99.9
2018-03-21T01:19:06.381Z,99.9
2018-03-21T01:20:13.295Z,99.9
2018-03-21T01:21:20.490Z,99.9
2018-03-21T01:22:27.678Z,99.9
2018-03-21T01:24:56.431Z,99.9
2018-03-21T01:26:03.341Z,99.9
2018-03-21T01:27:10.538Z,99.9
2018-03-21T01:28:17.456Z,99.9
2018-03-21T01:29:24.645Z,99.9
2018-03-21T01:30:31.284Z,99.9
2018-03-21T01:31:38.197Z,99.9
2018-03-21T01:32:45.118Z,99.9
2018-03-21T01:33:52.311Z,99.9
2018-03-21T01:34:59.226Z,99.9
2018-03-21T01:36:06.419Z,99.9
2018-03-21T01:37:13.329Z,99.9
2018-03-21T01:38:20.523Z,99.9
2018-03-21T01:39:27.726Z,99.9
2018-03-21T01:40:34.647Z,99.9
2018-03-21T01:41:41.612Z,99.9
2018-03-21T01:42:48.251Z,99.9
2018-03-21T01:43:55.169Z,99.9
2018-03-21T01:45:01.813Z,99.9
2018-03-21T01:46:08.460Z,99.9
2018-03-21T01:47:15.665Z,99.9
2018-03-21T01:48:22.860Z,99.9
2018-03-21T01:49:29.778Z,99.9
2018-03-21T01:50:36.140Z,99.9
2018-03-21T01:51:42.784Z,99.9
2018-03-21T01:52:49.424Z,99.9
2018-03-21T01:53:56.343Z,99.9
2018-03-21T01:55:03.540Z,99.9
2018-03-21T01:56:10.521Z,99.9
2018-03-21T01:57:17.731Z,99.9
2018-03-21T01:58:24.380Z,99.9
2018-03-21T01:59:31.572Z,99.9
2018-03-21T02:00:38.212Z,99.9
2018-03-21T02:01:45.406Z,99.9
2018-03-21T02:02:52.605Z,99.9
2018-03-21T02:03:59.524Z,99.9
2018-03-21T02:05:06.723Z,99.9
2018-03-21T02:06:13.911Z,99.9
2018-03-21T02:07:21.104Z,99.9
2018-03-21T02:08:28.019Z,99.9
2018-03-21T02:09:34.942Z,99.9
2018-03-21T02:10:41.855Z,99.9
2018-03-21T02:11:48.783Z,99.9
2018-03-21T02:12:55.697Z,99.9
2018-03-21T02:14:02.620Z,99.9
2018-03-21T02:15:09.540Z,99.9
2018-03-21T02:16:16.741Z,99.9
2018-03-21T02:17:23.384Z,99.9
2018-03-21T02:18:30.588Z,99.9
2018-03-21T02:19:37.774Z,99.9
2018-03-21T02:20:44.969Z,99.9
2018-03-21T02:21:52.164Z,99.9
2018-03-21T02:22:58.801Z,99.9
2018-03-21T02:24:05.718Z,99.9
2018-03-21T02:25:12.918Z,99.9
2018-03-21T02:26:19.562Z,99.9
2018-03-21T02:27:26.758Z,99.9
2018-03-21T02:28:33.673Z,99.9
2018-03-21T02:29:40.322Z,99.9
2018-03-21T02:30:46.684Z,99.9
2018-03-21T02:31:53.885Z,99.9
2018-03-21T02:33:01.075Z,99.9
2018-03-21T02:34:07.721Z,99.9
2018-03-21T02:35:14.906Z,99.9
2018-03-21T02:36:21.557Z,99.9
2018-03-21T02:37:27.926Z,99.9
2018-03-21T02:38:35.113Z,99.9
2018-03-21T02:39:42.336Z,99.9
2018-03-21T02:40:49.252Z,99.9
2018-03-21T02:41:56.462Z,99.9
2018-03-21T02:43:03.376Z,99.9
2018-03-21T02:44:10.290Z,99.9
2018-03-21T02:45:17.479Z,99.9
2018-03-21T02:46:24.391Z,99.9
2018-03-21T02:47:31.583Z,99.9
2018-03-21T02:48:38.777Z,99.9
2018-03-21T02:49:45.701Z,99.9
2018-03-21T02:50:53.045Z,99.9
2018-03-21T02:52:00.237Z,99.9
2018-03-21T02:53:07.432Z,99.9
2018-03-21T02:54:14.344Z,99.9
2018-03-21T02:55:21.544Z,99.9
2018-03-21T02:56:28.739Z,99.9
2018-03-21T02:57:35.933Z,99.9
2018-03-21T02:58:43.127Z,99.9
2018-03-21T02:59:50.319Z,99.9
2018-03-21T03:00:57.509Z,99.9
2018-03-21T03:02:04.701Z,99.9
2018-03-21T03:03:11.626Z,99.9
2018-03-21T03:04:18.265Z,99.9
2018-03-21T03:05:25.461Z,99.9
2018-03-21T03:06:32.651Z,99.9
2018-03-21T03:07:39.903Z,99.9
2018-03-21T03:08:46.546Z,99.9
2018-03-21T03:09:53.469Z,99.9
2018-03-21T03:11:00.660Z,99.9
2018-03-21T03:12:07.310Z,99.9
2018-03-21T03:13:14.236Z,99.9
2018-03-21T03:14:21.163Z,99.9
2018-03-21T03:15:28.078Z,99.9
2018-03-21T03:16:34.999Z,99.9
2018-03-21T03:17:42.193Z,99.9
2018-03-21T03:18:49.106Z,99.9
2018-03-21T03:19:56.303Z,99.9
2018-03-21T03:21:03.494Z,99.9
2018-03-21T03:22:10.410Z,99.9
2018-03-21T03:23:16.776Z,99.9
2018-03-21T03:24:23.692Z,99.9
2018-03-21T03:25:30.885Z,99.9
2018-03-21T03:26:38.081Z,99.9
2018-03-21T03:27:44.169Z,99.9
2018-03-21T03:28:50.813Z,99.9
2018-03-21T03:29:57.722Z,99.9
2018-03-21T03:31:04.918Z,99.9
2018-03-21T03:32:11.845Z,99.9
2018-03-21T03:33:18.819Z,99.9
2018-03-21T03:34:25.759Z,99.9
2018-03-21T03:35:32.975Z,99.9
2018-03-21T03:36:39.627Z,99.9
2018-03-21T03:37:46.842Z,99.9
2018-03-21T03:38:54.022Z,99.9
2018-03-21T03:40:00.671Z,99.9
2018-03-21T03:41:07.859Z,99.9
2018-03-21T03:42:15.052Z,99.9
2018-03-21T03:43:22.247Z,99.9
2018-03-21T03:44:29.166Z,99.9
2018-03-21T03:45:36.129Z,99.9
2018-03-21T03:46:43.045Z,99.9
2018-03-21T03:47:50.249Z,99.9
2018-03-21T03:48:57.165Z,99.9
2018-03-21T03:50:04.354Z,99.9
2018-03-21T03:51:11.543Z,99.9
2018-03-21T03:52:18.736Z,99.9
2018-03-21T03:53:25.922Z,99.9
2018-03-21T03:54:33.131Z,99.9
2018-03-21T03:55:40.327Z,99.9
2018-03-21T03:56:47.251Z,99.9
2018-03-21T03:57:54.162Z,99.9
2018-03-21T03:59:01.086Z,99.9
2018-03-21T04:00:08.303Z,99.9
2018-03-21T04:01:15.708Z,99.9
2018-03-21T04:02:22.905Z,99.9
2018-03-21T04:03:30.099Z,99.9
2018-03-21T04:04:37.320Z,99.9
2018-03-21T04:05:44.511Z,99.9
2018-03-21T04:06:51.701Z,99.9
2018-03-21T04:07:58.611Z,99.9
2018-03-21T04:09:05.801Z,99.9
2018-03-21T04:10:12.996Z,99.9
2018-03-21T04:11:19.362Z,99.9
2018-03-21T04:12:26.270Z,99.9
2018-03-21T04:13:33.194Z,99.9
2018-03-21T04:14:40.112Z,99.9
2018-03-21T04:15:47.302Z,99.9
2018-03-21T04:16:54.499Z,99.9
2018-03-21T04:18:01.415Z,99.9
2018-03-21T04:19:08.612Z,99.9
2018-03-21T04:20:15.525Z,99.9
2018-03-21T04:21:22.714Z,99.9
2018-03-21T04:22:29.907Z,99.9
2018-03-21T04:23:37.096Z,99.9
2018-03-21T04:24:44.288Z,99.9
2018-03-21T04:25:51.213Z,99.9
2018-03-21T04:26:58.134Z,99.9
2018-03-21T04:28:05.327Z,99.9
2018-03-21T04:29:12.522Z,99.9
2018-03-21T04:30:19.441Z,99.9
2018-03-21T04:31:26.636Z,99.9
2018-03-21T04:32:33.829Z,99.9
2018-03-21T04:33:40.462Z,99.9
2018-03-21T04:34:47.104Z,99.9
2018-03-21T04:35:54.027Z,99.9
2018-03-21T04:37:01.222Z,99.9
2018-03-21T04:38:08.135Z,99.9
2018-03-21T04:39:15.059Z,99.9
2018-03-21T04:40:21.978Z,99.9
2018-03-21T04:41:28.620Z,99.9
2018-03-21T04:42:35.535Z,99.9
2018-03-21T04:43:42.460Z,99.9
2018-03-21T04:44:49.647Z,99.9
2018-03-21T04:45:56.836Z,99.9
2018-03-21T04:47:04.039Z,99.9
2018-03-21T04:48:11.238Z,99.9
2018-03-21T04:49:18.427Z,99.9
2018-03-21T04:50:25.622Z,99.9
2018-03-21T04:51:32.544Z,99.9
2018-03-21T04:52:39.729Z,99.9
2018-03-21T04:53:46.687Z,99.9
2018-03-21T04:54:53.885Z,99.9
2018-03-21T04:56:01.076Z,99.9
2018-03-21T04:57:08.268Z,99.9
2018-03-21T04:58:14.914Z,99.9
2018-03-21T04:59:21.829Z,99.9
2018-03-21T05:00:28.468Z,99.9
2018-03-21T05:01:35.664Z,99.9
2018-03-21T05:02:42.579Z,99.9
2018-03-21T05:03:49.218Z,99.9
2018-03-21T05:04:56.130Z,99.9
2018-03-21T05:06:03.321Z,99.9
2018-03-21T05:07:10.514Z,99.9
2018-03-21T05:08:17.715Z,99.9
2018-03-21T05:09:24.906Z,99.9
2018-03-21T05:10:32.102Z,99.9
2018-03-21T05:11:39.295Z,99.9
2018-03-21T05:12:46.485Z,99.9
2018-03-21T05:13:53.679Z,99.9
2018-03-21T05:15:00.874Z,99.9
2018-03-21T05:16:08.069Z,99.9
2018-03-21T05:17:15.258Z,99.9
2018-03-21T05:18:22.457Z,99.9
2018-03-21T05:19:29.643Z,99.9
2018-03-21T05:20:37.066Z,99.9
2018-03-21T05:21:44.261Z,99.9
2018-03-21T05:22:51.456Z,99.9
2018-03-21T05:23:58.648Z,99.9
2018-03-21T05:25:05.839Z,99.9
2018-03-21T05:26:13.033Z,99.9
2018-03-21T05:27:19.953Z,99.9
2018-03-21T05:28:27.174Z,99.9
2018-03-21T05:29:34.371Z,99.9
2018-03-21T05:30:41.296Z,99.9
2018-03-21T05:31:47.929Z,99.9
2018-03-21T05:32:55.159Z,99.9
2018-03-21T05:34:02.358Z,99.9
2018-03-21T05:35:09.542Z,99.9
2018-03-21T05:36:16.179Z,99.9
2018-03-21T05:37:23.093Z,99.9
2018-03-21T05:38:30.293Z,99.9
2018-03-21T05:39:37.483Z,99.9
2018-03-21T05:40:44.396Z,99.9
2018-03-21T05:41:51.595Z,99.9
2018-03-21T05:42:58.789Z,99.9
2018-03-21T05:44:05.466Z,99.9
2018-03-21T05:45:12.113Z,99.9
2018-03-21T05:46:19.022Z,99.9
2018-03-21T05:47:25.961Z,99.9
2018-03-21T05:48:32.883Z,99.9
2018-03-21T05:49:40.074Z,99.9
2018-03-21T05:50:47.261Z,99.9
2018-03-21T05:51:54.180Z,99.9
2018-03-21T05:53:01.594Z,99.9
2018-03-21T05:54:08.787Z,99.9
2018-03-21T05:55:15.984Z,99.9
2018-03-21T05:56:22.910Z,99.9
2018-03-21T05:57:30.101Z,99.9
2018-03-21T05:58:37.018Z,99.9
2018-03-21T05:59:43.951Z,99.9
2018-03-21T06:00:50.871Z,99.9
2018-03-21T06:01:57.788Z,99.9
2018-03-21T06:03:04.981Z,99.9
2018-03-21T06:04:11.899Z,99.9
2018-03-21T06:05:19.127Z,99.9
2018-03-21T06:06:26.322Z,99.9
2018-03-21T06:07:33.236Z,99.9
2018-03-21T06:08:40.446Z,99.9
2018-03-21T06:09:47.758Z,99.9
2018-03-21T06:10:54.718Z,99.9
2018-03-21T06:12:01.632Z,99.9
2018-03-21T06:13:08.840Z,99.9
2018-03-21T06:14:16.029Z,99.9
2018-03-21T06:15:22.954Z,99.9
2018-03-21T06:16:30.149Z,99.9
2018-03-21T06:17:37.580Z,99.9
2018-03-21T06:18:44.770Z,99.9
2018-03-21T06:19:51.968Z,99.9
2018-03-21T06:20:58.893Z,99.9
2018-03-21T06:22:06.092Z,99.9
2018-03-21T06:23:13.326Z,99.9
2018-03-21T06:24:20.254Z,99.9
2018-03-21T06:25:27.177Z,99.9
2018-03-21T06:26:34.365Z,99.9
2018-03-21T06:27:41.284Z,99.9
2018-03-21T06:28:48.214Z,99.9
2018-03-21T06:29:55.416Z,99.9
2018-03-21T06:31:02.600Z,99.9
2018-03-21T06:32:09.797Z,99.9
2018-03-21T06:33:16.439Z,99.9
2018-03-21T06:34:23.637Z,99.9
2018-03-21T06:35:30.845Z,99.9
2018-03-21T06:36:37.506Z,99.9
2018-03-21T06:37:44.696Z,99.9
2018-03-21T06:38:51.617Z,99.9
2018-03-21T06:39:58.821Z,99.9
2018-03-21T06:41:05.738Z,99.9
2018-03-21T06:42:12.663Z,99.9
2018-03-21T06:43:19.854Z,99.9
2018-03-21T06:44:26.768Z,99.9
2018-03-21T06:45:33.962Z,99.9
2018-03-21T06:46:40.877Z,99.9
2018-03-21T06:47:48.077Z,99.9
2018-03-21T06:48:54.989Z,99.9
2018-03-21T06:50:02.271Z,99.9
2018-03-21T06:51:09.258Z,99.9
2018-03-21T06:52:16.460Z,99.9
2018-03-21T06:53:23.651Z,99.9
2018-03-21T06:54:30.846Z,99.9
2018-03-21T06:55:37.216Z,99.9
2018-03-21T06:56:43.892Z,99.9
2018-03-21T06:57:50.851Z,99.9
2018-03-21T06:58:57.772Z,99.9
2018-03-21T07:00:04.973Z,99.9
2018-03-21T07:01:11.895Z,99.9
2018-03-21T07:02:19.096Z,99.9
2018-03-21T07:03:25.459Z,99.9
2018-03-21T07:04:32.382Z,99.9
2018-03-21T07:05:39.024Z,99.9
2018-03-21T07:06:46.224Z,99.9
2018-03-21T07:07:53.138Z,99.9
2018-03-21T07:08:59.780Z,99.9
2018-03-21T07:10:06.697Z,99.9
2018-03-21T07:11:13.343Z,99.9
2018-03-21T07:12:19.984Z,99.9
2018-03-21T07:13:27.183Z,99.9
2018-03-21T07:14:34.382Z,99.9
2018-03-21T07:15:41.302Z,99.9
2018-03-21T07:16:48.227Z,99.9
2018-03-21T07:17:55.414Z,99.9
2018-03-21T07:19:02.327Z,99.9
2018-03-21T07:20:09.262Z,99.9
2018-03-21T07:21:16.503Z,99.9
2018-03-21T07:22:23.421Z,99.9
2018-03-21T07:23:29.800Z,99.9
2018-03-21T07:24:36.440Z,99.9
2018-03-21T07:25:43.077Z,99.9
2018-03-21T07:26:50.003Z,99.9
2018-03-21T07:27:56.609Z,99.9
2018-03-21T07:29:03.799Z,99.9
2018-03-21T07:30:10.715Z,99.9
2018-03-21T07:31:17.393Z,99.9
2018-03-21T07:32:24.314Z,99.9
2018-03-21T07:33:31.089Z,99.9
2018-03-21T07:34:38.287Z,99.9
2018-03-21T07:35:45.478Z,99.9
2018-03-21T07:36:52.685Z,99.9
2018-03-21T07:37:59.324Z,99.9
2018-03-21T07:39:06.292Z,99.9
2018-03-21T07:40:13.063Z,99.9
2018-03-21T07:41:19.975Z,99.9
2018-03-21T07:42:27.178Z,99.9
2018-03-21T07:43:34.381Z,99.9
2018-03-21T07:44:41.296Z,99.9
2018-03-21T07:45:48.491Z,99.9
2018-03-21T07:46:55.146Z,99.9
2018-03-21T07:48:02.101Z,99.9
2018-03-21T07:49:09.280Z,99.9
2018-03-21T07:50:16.477Z,99.9
2018-03-21T07:51:23.900Z,99.9
2018-03-21T07:52:31.079Z,99.9
2018-03-21T07:53:37.997Z,99.9
2018-03-21T07:54:44.650Z,99.9
2018-03-21T07:55:51.838Z,99.9
2018-03-21T07:56:58.761Z,99.9
2018-03-21T07:58:05.958Z,99.9
2018-03-21T07:59:13.158Z,99.9
2018-03-21T08:00:20.351Z,99.9
2018-03-21T08:01:27.282Z,99.9
2018-03-21T08:02:34.463Z,99.9
2018-03-21T08:03:41.385Z,99.9
2018-03-21T08:04:48.582Z,99.9
2018-03-21T08:05:55.782Z,99.9
2018-03-21T08:07:02.983Z,99.9
2018-03-21T08:08:10.205Z,99.9
2018-03-21T08:09:17.420Z,99.9
2018-03-21T08:10:24.562Z,99.9
2018-03-21T08:11:31.767Z,99.9
2018-03-21T08:12:38.407Z,99.9
2018-03-21T08:13:45.336Z,99.9
2018-03-21T08:14:52.257Z,99.9
2018-03-21T08:15:59.177Z,99.9
2018-03-21T08:17:06.374Z,99.9
2018-03-21T08:18:13.298Z,99.9
2018-03-21T08:19:20.729Z,99.9
2018-03-21T08:20:27.922Z,99.9
2018-03-21T08:21:34.853Z,99.9
2018-03-21T08:22:41.504Z,99.9
2018-03-21T08:23:48.434Z,99.9
2018-03-21T08:24:55.354Z,99.9
2018-03-21T08:26:02.014Z,99.9
2018-03-21T08:27:09.210Z,99.9
2018-03-21T08:28:15.865Z,99.9
2018-03-21T08:29:22.507Z,99.9
2018-03-21T08:30:29.436Z,99.9
2018-03-21T08:31:36.367Z,99.9
2018-03-21T08:32:43.014Z,99.9
2018-03-21T08:33:49.934Z,99.9
2018-03-21T08:36:18.725Z,99.9
2018-03-21T08:37:25.641Z,99.9
2018-03-21T08:38:32.563Z,99.9
2018-03-21T08:39:39.478Z,99.9
2018-03-21T08:40:46.685Z,99.9
2018-03-21T08:41:53.599Z,99.9
2018-03-21T08:43:00.524Z,99.9
2018-03-21T08:44:07.724Z,99.9
2018-03-21T08:45:14.649Z,99.9
2018-03-21T08:47:43.143Z,99.9
2018-03-21T08:48:50.339Z,99.9
2018-03-21T08:49:57.280Z,99.9
2018-03-21T08:51:04.480Z,99.9
2018-03-21T08:52:11.405Z,99.9
2018-03-21T08:53:18.361Z,99.9
2018-03-21T08:54:25.010Z,99.9
2018-03-21T08:55:32.216Z,99.9
2018-03-21T08:56:39.417Z,99.9
2018-03-21T08:57:46.336Z,99.9
2018-03-21T08:58:53.259Z,99.9
2018-03-21T09:00:00.192Z,99.9
2018-03-21T09:01:07.117Z,98
2018-03-21T09:02:14.315Z,99.9
2018-03-21T09:03:21.241Z,99.9
2018-03-21T09:04:27.609Z,99.9
2018-03-21T09:05:34.812Z,99.9
2018-03-21T09:06:42.010Z,99.7
2018-03-21T09:07:48.936Z,99.9
2018-03-21T09:08:55.856Z,99.9
2018-03-21T09:10:02.518Z,99.9
2018-03-21T09:11:09.170Z,99.9
2018-03-21T09:12:16.371Z,94.6
2018-03-21T09:13:23.571Z,92.1
2018-03-21T09:14:30.776Z,97.8
2018-03-21T09:15:37.422Z,97.4
2018-03-21T09:16:44.621Z,95.7
2018-03-21T09:17:51.818Z,94.8
2018-03-21T09:18:58.501Z,98.3
2018-03-21T09:20:05.690Z,93.7
2018-03-21T09:21:12.896Z,98.9
2018-03-21T09:22:20.699Z,97.2
2018-03-21T09:23:28.132Z,93.5
2018-03-21T09:24:35.337Z,94.8
2018-03-21T09:25:42.534Z,93.2
2018-03-21T09:26:49.472Z,91
2018-03-21T09:27:56.397Z,95.2
2018-03-21T09:29:03.626Z,94.5
2018-03-21T09:30:10.828Z,85.8
2018-03-21T09:31:18.028Z,81.4
2018-03-21T09:32:24.955Z,93.5
2018-03-21T09:33:31.876Z,95.3
2018-03-21T09:34:38.801Z,89.6
2018-03-21T09:35:45.732Z,79.5
2018-03-21T09:36:52.939Z,83
2018-03-21T09:37:59.611Z,76.8
2018-03-21T09:39:06.286Z,76.3
2018-03-21T09:40:13.563Z,87.9
2018-03-21T09:41:19.943Z,90
2018-03-21T09:42:26.868Z,90.6
2018-03-21T09:43:34.070Z,82.9
2018-03-21T09:44:40.994Z,68.6
2018-03-21T09:45:48.201Z,85.8
2018-03-21T09:46:55.405Z,87.9
2018-03-21T09:48:02.326Z,85.4
2018-03-21T09:49:09.258Z,61.9
2018-03-21T09:50:16.180Z,77.6
2018-03-21T09:51:23.151Z,73.4
2018-03-21T09:52:29.800Z,54.3
2018-03-21T09:53:36.728Z,66
2018-03-21T09:54:43.929Z,74.2
2018-03-21T09:55:51.136Z,64.5
2018-03-21T09:56:58.150Z,53.5
2018-03-21T09:58:05.356Z,65
2018-03-21T09:59:12.554Z,63.4
2018-03-21T10:00:19.757Z,64.8
2018-03-21T10:01:26.682Z,66.4
2018-03-21T10:02:33.888Z,66.2
2018-03-21T10:03:41.897Z,59.9
2018-03-21T10:04:49.100Z,51.9
2018-03-21T10:05:56.303Z,67.8
2018-03-21T10:07:03.503Z,66.4
2018-03-21T10:08:10.709Z,65
2018-03-21T10:09:17.906Z,57.1
2018-03-21T10:11:46.954Z,46.2
2018-03-21T10:12:53.887Z,49.8
2018-03-21T10:14:01.093Z,50.7
2018-03-21T10:15:08.292Z,49.2
2018-03-21T10:16:15.493Z,50.6
2018-03-21T10:17:22.702Z,53.8
2018-03-21T10:18:29.907Z,56.8
2018-03-21T10:19:37.105Z,57.3
2018-03-21T10:20:44.305Z,43.3
2018-03-21T10:21:51.518Z,46.1
2018-03-21T10:22:58.724Z,46.5
2018-03-21T10:24:05.928Z,37.7
2018-03-21T10:25:13.134Z,43.6
2018-03-21T10:26:20.330Z,57.4
2018-03-21T10:27:27.534Z,40.5
2018-03-21T10:28:34.731Z,34.5
2018-03-21T10:29:41.933Z,43.4
2018-03-21T10:30:48.857Z,39.8
2018-03-21T10:31:56.058Z,51
2018-03-21T10:33:02.990Z,39.7
2018-03-21T10:34:10.187Z,40.8
2018-03-21T10:35:17.113Z,50.1
2018-03-21T10:36:24.040Z,38.1
2018-03-21T10:37:30.700Z,39
2018-03-21T10:38:37.917Z,44.4
2018-03-21T10:39:44.851Z,49.2
2018-03-21T10:40:52.054Z,43.8
2018-03-21T10:41:59.252Z,30.7
2018-03-21T10:43:06.460Z,36.2
2018-03-21T10:44:13.667Z,42.5
2018-03-21T10:45:20.870Z,30.9
2018-03-21T10:46:28.082Z,32.5
2018-03-21T10:47:35.289Z,35.2
2018-03-21T10:48:42.490Z,41.1
2018-03-21T10:49:49.692Z,38.7
2018-03-21T10:50:56.898Z,31.1
2018-03-21T10:52:04.107Z,43.8
2018-03-21T10:53:11.312Z,32.9
2018-03-21T10:54:18.520Z,28.6
2018-03-21T10:55:25.445Z,33.8
2018-03-21T10:56:32.657Z,31.7
2018-03-21T10:57:39.860Z,44.6
2018-03-21T10:58:47.060Z,49.5
2018-03-21T10:59:54.310Z,48.3
2018-03-21T11:01:01.511Z,33.3
2018-03-21T11:02:08.445Z,39.8
2018-03-21T11:03:15.646Z,31.1
2018-03-21T11:04:22.864Z,45.4
2018-03-21T11:05:30.058Z,33.9
2018-03-21T11:06:36.711Z,38.4
2018-03-21T11:07:43.912Z,30.1
2018-03-21T11:08:51.117Z,29
2018-03-21T11:09:58.320Z,31.6
2018-03-21T11:11:05.531Z,40.9
2018-03-21T11:12:12.193Z,38.7
2018-03-21T11:13:19.407Z,29.8
2018-03-21T11:14:26.604Z,39.8
2018-03-21T11:15:33.819Z,34.5
2018-03-21T11:16:41.023Z,31
2018-03-21T11:17:48.231Z,38.3
2018-03-21T11:18:55.438Z,38.9
2018-03-21T11:20:02.641Z,41.4
2018-03-21T11:21:09.855Z,38.8
2018-03-21T11:22:17.061Z,27.7
2018-03-21T11:24:46.126Z,30.3
2018-03-21T11:25:53.334Z,44.3
2018-03-21T11:27:00.539Z,42.7
2018-03-21T11:28:07.747Z,33.5
2018-03-21T11:29:14.956Z,37.1
2018-03-21T11:30:21.886Z,33
2018-03-21T11:31:28.531Z,35.4
2018-03-21T11:32:35.738Z,43.8
2018-03-21T11:33:42.940Z,36.4
2018-03-21T11:34:50.169Z,37.6
2018-03-21T11:35:57.376Z,37.2
2018-03-21T11:37:04.578Z,29.2
2018-03-21T11:38:11.509Z,36.9
2018-03-21T11:39:18.755Z,30.1
2018-03-21T11:40:25.689Z,31
2018-03-21T11:41:32.903Z,32.4
2018-03-21T11:42:40.108Z,29.7
2018-03-21T11:43:47.313Z,30.7
2018-03-21T11:44:54.551Z,32.1
2018-03-21T11:46:01.790Z,28.8
2018-03-21T11:47:08.726Z,27
2018-03-21T11:48:15.928Z,26.6
2018-03-21T11:49:23.134Z,33.4
2018-03-21T11:50:30.347Z,29.5
2018-03-21T11:51:37.558Z,30
2018-03-21T11:52:44.767Z,26.9
2018-03-21T11:53:51.987Z,27.6
2018-03-21T11:54:58.918Z,27.6
2018-03-21T11:56:06.124Z,29.3
2018-03-21T11:57:13.063Z,29.1
2018-03-21T11:58:19.993Z,34.5
2018-03-21T11:59:26.915Z,33.5
2018-03-21T12:00:34.119Z,29.5
2018-03-21T12:01:41.049Z,25.9
2018-03-21T12:02:48.254Z,27.6
2018-03-21T12:03:55.532Z,28.8
2018-03-21T12:05:02.740Z,41.6
2018-03-21T12:06:09.672Z,36.9
2018-03-21T12:08:23.232Z,30
2018-03-21T12:09:30.440Z,38.8
2018-03-21T12:10:37.649Z,34.4
2018-03-21T12:11:44.314Z,36.9
2018-03-21T12:12:51.522Z,31.5
2018-03-21T12:13:58.736Z,26.5
2018-03-21T12:15:05.944Z,24.5
2018-03-21T12:16:12.875Z,23.5
2018-03-21T12:17:19.812Z,27.5
2018-03-21T12:18:26.742Z,24.3
2018-03-21T12:19:33.949Z,25
2018-03-21T12:20:41.158Z,25.4
2018-03-21T12:21:48.090Z,25.7
2018-03-21T12:22:55.023Z,26.8
2018-03-21T12:24:01.952Z,25.6
2018-03-21T12:25:08.896Z,38.1
2018-03-21T12:26:16.090Z,38.1
2018-03-21T12:27:23.339Z,38.6
2018-03-21T12:28:30.541Z,33.6
2018-03-21T12:29:37.741Z,24
2018-03-21T12:30:44.680Z,23.9
2018-03-21T12:31:51.884Z,24.5
2018-03-21T12:32:59.088Z,24.2
2018-03-21T12:34:06.299Z,24.2
2018-03-21T12:35:13.504Z,24.9
2018-03-21T12:36:20.706Z,31.3
2018-03-21T12:37:27.915Z,34.1
2018-03-21T12:38:34.851Z,30.1
2018-03-21T12:39:42.060Z,26.3
2018-03-21T12:40:49.270Z,31.6
2018-03-21T12:41:56.192Z,28.5
2018-03-21T12:43:03.122Z,29.2
2018-03-21T12:44:10.055Z,31.1
2018-03-21T12:45:16.986Z,31.5
2018-03-21T12:46:24.189Z,31.1
2018-03-21T12:47:31.135Z,24.3
2018-03-21T12:48:38.063Z,22.7
2018-03-21T12:49:44.992Z,21.1
2018-03-21T12:50:52.207Z,25.6
2018-03-21T12:51:59.136Z,28.7
2018-03-21T12:53:06.344Z,25.1
2018-03-21T12:54:13.549Z,22.2
2018-03-21T12:55:20.482Z,21.1
2018-03-21T12:56:27.415Z,23.9
2018-03-21T12:58:55.645Z,20.7
2018-03-21T13:00:02.574Z,20.6
2018-03-21T13:01:10.206Z,23.1
2018-03-21T13:02:17.396Z,20.2
2018-03-21T13:03:24.675Z,20.2
2018-03-21T13:04:31.407Z,20.1
2018-03-21T13:05:38.070Z,19.3
2018-03-21T13:06:45.012Z,22.1
2018-03-21T13:07:52.228Z,19.4
2018-03-21T13:08:59.435Z,25
2018-03-21T13:10:06.638Z,23.6
2018-03-21T13:11:13.008Z,26.2
2018-03-21T13:12:20.214Z,23.3
2018-03-21T13:14:48.724Z,25.4
2018-03-21T13:15:55.941Z,22.1
2018-03-21T13:17:03.144Z,21.6
2018-03-21T13:18:10.073Z,17.7
2018-03-21T13:19:17.275Z,19.4
2018-03-21T13:20:24.480Z,23.2
2018-03-21T13:21:31.683Z,22
2018-03-21T13:22:38.609Z,20.1
2018-03-21T13:23:45.534Z,18.2
2018-03-21T13:24:52.749Z,20.2
2018-03-21T13:25:59.957Z,21.8
2018-03-21T13:27:07.203Z,18.6
2018-03-21T13:28:14.147Z,18.3
2018-03-21T13:29:20.824Z,18.1
2018-03-21T13:30:28.027Z,19.8
2018-03-21T13:31:34.963Z,20.3
2018-03-21T13:32:41.897Z,20.1
2018-03-21T13:33:49.108Z,20
2018-03-21T13:34:56.385Z,20.1
2018-03-21T13:36:03.691Z,26.4
2018-03-21T13:37:10.895Z,27.5
2018-03-21T13:38:18.099Z,21.5
2018-03-21T13:39:25.036Z,18.3
2018-03-21T13:40:32.244Z,18.6
2018-03-21T13:41:39.449Z,19.6
2018-03-21T13:42:46.660Z,20.3
2018-03-21T13:43:53.600Z,26.8
2018-03-21T13:45:00.797Z,21.6
2018-03-21T13:46:08.007Z,19.3
2018-03-21T13:47:14.940Z,21.9
2018-03-21T13:48:22.148Z,18.2
2018-03-21T13:49:29.355Z,17.8
2018-03-21T13:50:36.617Z,17.3
2018-03-21T13:51:43.812Z,18.7
2018-03-21T13:52:50.742Z,17.8
2018-03-21T13:53:57.944Z,19
2018-03-21T13:55:05.154Z,20.5
2018-03-21T13:56:12.357Z,22.1
2018-03-21T13:57:19.565Z,20.4
2018-03-21T13:58:26.497Z,18.5
2018-03-21T13:59:33.713Z,17
2018-03-21T14:00:40.644Z,21.4
2018-03-21T14:01:47.575Z,17.4
2018-03-21T14:02:54.778Z,19.4
2018-03-21T14:04:01.990Z,21.7
2018-03-21T14:05:08.925Z,22
2018-03-21T14:06:16.129Z,22.3
2018-03-21T14:07:22.787Z,22.9
2018-03-21T14:08:29.992Z,21.4
2018-03-21T14:09:37.201Z,20
2018-03-21T14:10:44.127Z,19.4
2018-03-21T14:11:51.333Z,21.5
2018-03-21T14:12:58.538Z,20.6
2018-03-21T14:14:05.485Z,18.9
2018-03-21T14:15:12.679Z,20.7
2018-03-21T14:16:19.891Z,16.6
2018-03-21T14:17:27.097Z,19.4
2018-03-21T14:18:34.023Z,17
2018-03-21T14:19:40.958Z,17.7
2018-03-21T14:20:47.889Z,19.4
2018-03-21T14:21:54.556Z,18.7
2018-03-21T14:23:01.773Z,17.5
2018-03-21T14:24:08.973Z,20.1
2018-03-21T14:25:16.186Z,18.6
2018-03-21T14:26:23.114Z,20.3
2018-03-21T14:27:30.325Z,19.3
2018-03-21T14:28:37.532Z,19.1
2018-03-21T14:29:44.741Z,17.2
2018-03-21T14:30:51.946Z,20.2
2018-03-21T14:31:58.602Z,21
2018-03-21T14:33:05.805Z,16.3
2018-03-21T14:34:13.012Z,20.5
2018-03-21T14:35:19.955Z,19.5
2018-03-21T14:36:27.160Z,15.8
2018-03-21T14:37:34.393Z,17.3
2018-03-21T14:38:41.314Z,22.3
2018-03-21T14:39:48.256Z,18.5
2018-03-21T14:40:55.463Z,16.2
2018-03-21T14:42:02.119Z,17.7
2018-03-21T14:43:09.049Z,15.8
2018-03-21T14:44:16.266Z,18.1
2018-03-21T14:45:23.201Z,18.5
2018-03-21T14:46:29.860Z,16.6
2018-03-21T14:47:37.068Z,16.8
2018-03-21T14:48:43.740Z,18.5
2018-03-21T14:49:50.942Z,23.7
2018-03-21T14:50:57.879Z,17.6
2018-03-21T14:52:04.806Z,18.9
2018-03-21T14:53:11.741Z,14.7
2018-03-21T14:54:18.673Z,14.8
2018-03-21T14:55:25.878Z,20.6
2018-03-21T14:56:33.093Z,16.2
2018-03-21T14:57:40.059Z,19.6
2018-03-21T14:58:47.073Z,18.9
2018-03-21T14:59:53.735Z,20.5
2018-03-21T15:01:00.945Z,19.6
2018-03-21T15:02:08.155Z,21.4
2018-03-21T15:03:15.360Z,19.9
2018-03-21T15:04:22.291Z,18.2
2018-03-21T15:05:29.232Z,20.3
2018-03-21T15:06:36.437Z,17.2